Aviation Digital Data Service (ADDS)

Output produced by METARs form (0148 UTC 01 November 2014)
found at http://www.aviationweather.gov/adds/metars/
 
KUNV 010053Z 00000KT 10SM OVC055 06/02 A2988
KUNV 312353Z 00000KT 10SM OVC055 07/02 A2988
KUNV 312253Z 00000KT 10SM OVC055 07/02 A2988
KUNV 312153Z 00000KT 10SM OVC049 07/02 A2987
KUNV 312053Z 00000KT 10SM BKN037 OVC043 08/01 A2986
KUNV 311953Z 00000KT 10SM BKN038 OVC060 08/01 A2986
KUNV 311853Z 00000KT 10SM OVC060 08/01 A2987
KUNV 311753Z VRB04KT 10SM OVC060 08/02 A2990
KUNV 311653Z VRB04KT 10SM OVC050 07/02 A2992
KUNV 311553Z VRB04KT 10SM OVC050 07/02 A2995
KUNV 311453Z VRB04KT 10SM OVC050 06/02 A2996
KUNV 311353Z VRB03KT 10SM OVC050 05/02 A2998
KUNV 311253Z VRB03KT 10SM OVC050 04/02 A2998
KUNV 311153Z 00000KT 10SM OVC048 04/02 A2998
KUNV 311053Z 00000KT 10SM OVC048 04/02 A2998
KUNV 310953Z 00000KT 10SM OVC050 04/03 A2998
KUNV 310935Z AUTO 00000KT 10SM OVC050 04/03 A2999 RMK AO2 T00410029
KUNV 310915Z AUTO 00000KT 10SM OVC050 05/03 A2999 RMK AO2 T00450029
KUNV 310855Z AUTO 00000KT 10SM OVC050 04/03 A2999 RMK AO2 T00440026
KUNV 310835Z AUTO 00000KT 10SM OVC050 04/03 A2999 RMK AO2 T00410029
KUNV 310815Z AUTO 00000KT 10SM OVC048 04/02 A3000 RMK AO2 T00430021
KUNV 310755Z AUTO 00000KT 10SM OVC050 04/03 A3000 RMK AO2 T00420028
KUNV 310735Z AUTO 00000KT 10SM OVC050 04/02 A3000 RMK AO2 T00410016
KUNV 310715Z AUTO 00000KT 10SM OVC050 04/02 A3000 RMK AO2 T00410015
KUNV 310655Z AUTO 00000KT 10SM OVC050 04/03 A3000 RMK AO2 T00390025
KUNV 310635Z AUTO 00000KT 10SM OVC050 04/02 A3001 RMK AO2 T00410017
KUNV 310615Z AUTO 00000KT 10SM OVC050 05/02 A3001 RMK AO2 T00450019
KUNV 310555Z AUTO 00000KT 10SM OVC050 05/01 A3002 RMK AO2 T00450013 10079 20031
KUNV 310535Z AUTO 00000KT 10SM OVC050 04/01 A3002 RMK AO2 T00390011
KUNV 310515Z AUTO 00000KT 10SM OVC050 04/01 A3002 RMK AO2 T00370011
KUNV 310455Z AUTO 00000KT 10SM OVC050 04/01 A3002 RMK AO2 T00370010
KUNV 310435Z AUTO 00000KT 10SM OVC050 05/01 A3002 RMK AO2 T00450010
KUNV 310415Z AUTO 30003KT 10SM OVC050 05/01 A3002 RMK AO2 T00500008
KUNV 310355Z AUTO 00000KT 10SM OVC055 05/01 A3002 RMK AO2 T00480005 401040031
KUNV 310335Z AUTO 00000KT 10SM BKN055 05/01 A3003 RMK AO2 T00470006
KUNV 310315Z AUTO 00000KT 10SM BKN055 04/01 A3003 RMK AO2 T00380005
KUNV 310255Z AUTO 00000KT 10SM CLR 05/00 A3003 RMK AO2 T00450003
KUNV 310235Z AUTO 00000KT 10SM CLR 06/01 A3003 RMK AO2 T00600005
KUNV 310215Z AUTO 00000KT 10SM CLR 06/01 A3003 RMK AO2 T00570005
KUNV 310155Z AUTO 22003KT 10SM SCT050 05/00 A3003 RMK AO2 T00470004
KUNV 310053Z 00000KT 10SM BKN050 07/01 A3003
KUNV 302353Z 00000KT 10SM OVC050 08/01 A3003
KUNV 302253Z 30004KT 10SM SCT050 BKN055 09/01 A3003
KUNV 302153Z 29005KT 10SM OVC050 09/01 A3003
KUNV 302053Z 29005KT 10SM OVC050 10/01 A3002
KUNV 301953Z 33007KT 10SM OVC043 10/01 A3002
KUNV 301853Z 32006KT 10SM OVC041 10/01 A3002
KUNV 301753Z 32005KT 10SM BKN043 OVC049 10/01 A3002
KUNV 301653Z 32005KT 10SM OVC043 10/01 A3005
KUNV 301553Z 30008KT 10SM SCT032 BKN046 10/02 A3005
KUNV 301453Z 31006KT 10SM SCT024 OVC035 08/03 A3007
KUNV 301353Z 27008KT 10SM SCT027 OVC033 07/03 A3006